Terminal Aerodrome Forecast
Issued by NWS

Home | Current Version | Previous Version | Text Only | Print | Product List | Glossary On
Versions: 1 2 3 4 5 6 7 8 9 10 11 12 13 14 15 16 17 18 19
000
FTUS41 KPBZ 282000 AAB
TAFAGC
TAF AMD
KAGC 282054Z 2821/2918 32008KT 6SM -DZ BKN025 OVC050
      TEMPO 2821/2824 BKN015 OVC025
     FM290600 32004KT 6SM BR BKN025
     FM291500 35004KT P6SM OVC100
     FM291700 34005KT P6SM BKN250=

USA.gov is the U.S. government's official web portal to all federal, state and local government web resources and services.